Flight Number: EUR3036 Duration: 11:00
Departure: Helsinki Vantaa (EFHK) at 08:00 Distance: 4494 Nm
Arrival: Miami Int'l (KMIA) at 19:00 Equipment: A340

Weather Information
Helsinki-Vantaa, Finland (EFHK) 60-19N 024-58E 56M Feb 19, 2018 - 02:20 AM EST / 2018.02.19 0720 UTC
Wind: from the N (010 degrees) at 6 MPH (5 KT):0
Visibility: 5 mile(s):0
Sky conditions: partly cloudy Temperature: 8 F (-13 C)
Windchill: -2 F (-19 C):1 Dew Point: 5 F (-15 C) Relative Humidity: 84% Pressure (altimeter): 30.24 in. Hg (1024 hPa)
ob: EFHK 190720Z 01005KT 9000 FEW018 SCT063 M13/M15 Q1024 NOSIG cycle: 7
Sunrise: 05:51 Sunset: 15:16 (UTC)

MIAMI INTERNATIONAL AIRPORT , FL, United States (KMIA) 25-47N 080-19W 8M Feb 19, 2018 - 01:53 AM EST / 2018.02.19 0653 UTC
Wind: from the E (090 degrees) at 15 MPH (13 KT):0
Visibility: 10 mile(s):0
Sky conditions: partly cloudy Temperature: 75.0 F (23.9 C) Dew Point: 64.9 F (18.3 C) Relative Humidity: 70% Pressure (altimeter): 30.21 in. Hg (1023 hPa)
ob: KMIA 190653Z 09013KT 10SM FEW028 SCT036 24/18 A3021 RMK AO2 SLP230 T02390183 cycle: 7
Sunrise: 11:55 Sunset: 23:14 (UTC)

TAF:2018/02/19 06:30 TAF KMIA 190528Z 1906/2012 08008KT P6SM FEW030 FM191500 10016G26KT P6SM SCT035 BKN060 FM200000 09013KT P6SM SCT050

This route has never been flown.

Route map